Laurie Ann Reinauer — WDF2460 — position and weather

sailwx.info

Track history (hours):
 
Tides and Currents Weather Stations Pressure Air Temp Water Temp Dewpoint Dewpoint Depression Visibility Wind Speed Wind Dir Waves Ship Positions

Laurie Ann Reinauer

Owner: HA REINAUER INC., Richmond, NY. More information available from US FCC via Universal Licensing System and Coast Guard Vessel Documentation Center.

Last reported at 2018-Apr-23 09:11 UTC. Time now 2018-Apr-24 12:39 UTC.
Position N 25°27' W 080°01'.

Length 129 m; draft 4.9 m.

Type: . MMSI: 367428330.

Date/timePositionNaut miles runAvg speedWind from/ knotsBaromVisibWave heightAir tempDewpointWater temp
2018-Apr-23 09:11N 25°27' W 080°01'1 5.8
2018-Apr-23 08:59N 25°28' W 080°01'3 6.0
2018-Apr-23 08:30N 25°31' W 080°02'3 6.2
2018-Apr-23 08:01N 25°34' W 080°02'3 6.6
2018-Apr-23 07:30N 25°37' W 080°02'3 7.0
2018-Apr-23 07:00N 25°41' W 080°03'4 7.2
2018-Apr-23 06:30N 25°44' W 080°03'4 7.2
2018-Apr-23 06:00N 25°48' W 080°02'4 7.4
2018-Apr-23 05:31N 25°51' W 080°02'4 7.3
2018-Apr-23 05:00N 25°55' W 080°02'4 7.8
2018-Apr-23 04:30N 25°59' W 080°03'4 7.8
2018-Apr-23 04:00N 26°03' W 080°02'3 6.7
2018-Apr-23 03:30N 26°06' W 080°02'4 7.0
2018-Apr-23 02:59N 26°10' W 080°03'3 7.1
2018-Apr-23 02:30N 26°13' W 080°03'3 6.5
2018-Apr-23 02:00N 26°16' W 080°02'4 7.2
2018-Apr-23 01:30N 26°20' W 080°02'3 6.9
2018-Apr-23 01:00N 26°23' W 080°02'3 6.9
2018-Apr-23 00:30N 26°27' W 080°01'4 7.0
2018-Apr-23 00:00N 26°30' W 080°01'20 7.2
2018-Apr-22 21:16N 26°50' W 079°60'3 7.8
2018-Apr-22 20:55N 26°53' W 080°00'4 8.4
2018-Apr-22 20:29N 26°56' W 080°01'4 8.4
2018-Apr-22 20:00N 27°00' W 080°01'  
2018-Apr-18 22:42N 36°51' W 075°51'2 8.0
2018-Apr-18 22:30N 36°52' W 075°52'4 8.3
2018-Apr-18 22:00N 36°55' W 075°56'4 8.9
2018-Apr-18 21:30N 36°57' W 076°01'3 6.4
2018-Apr-18 21:00N 36°56' W 076°05'0 0.2
2018-Apr-18 20:30N 36°56' W 076°05'1 1.2
2018-Apr-18 20:00N 36°56' W 076°04'1 2.4
2018-Apr-18 19:30N 36°57' W 076°03'3 5.6
2018-Apr-18 19:00N 36°57' W 075°59'4 6.2
2018-Apr-18 18:24N 36°57' W 075°55'3 6.9
2018-Apr-18 18:00N 36°57' W 075°51'171 6.5
2018-Apr-17 15:41N 39°28' W 074°09'2 6.4
2018-Apr-17 15:25N 39°29' W 074°08'3 6.2
2018-Apr-17 14:58N 39°31' W 074°06'3 6.1
2018-Apr-17 14:25N 39°34' W 074°04'4 6.3
2018-Apr-17 13:51N 39°38' W 074°02'2 6.2
2018-Apr-17 13:29N 39°40' W 074°01'3 6.3
2018-Apr-17 12:59N 39°43' W 073°60'3 6.1
2018-Apr-17 12:29N 39°46' W 073°59'3 6.4
2018-Apr-17 11:59N 39°49' W 073°58'4 6.4
2018-Apr-17 11:26N 39°52' W 073°58'27 6.6
2018-Apr-17 07:17N 40°19' W 073°54'2 6.7
2018-Apr-17 06:59N 40°21' W 073°54'3 6.8
2018-Apr-17 06:30N 40°25' W 073°54'4 7.6
2018-Apr-17 05:57N 40°29' W 073°55'4 9.9
2018-Apr-17 05:30N 40°31' W 073°60'610.9
2018-Apr-17 05:00N 40°36' W 074°03'510.4
2018-Apr-17 04:30N 40°41' W 074°02'510.1
2018-Apr-17 04:00N 40°46' W 074°00'3 5.9
2018-Apr-17 03:25N 40°49' W 073°58'0 0.1
2018-Apr-17 02:58N 40°49' W 073°58'0 0.0
2018-Apr-17 02:25N 40°49' W 073°58'0 0.0
2018-Apr-17 01:58N 40°49' W 073°58'0 0.0
2018-Apr-17 01:28N 40°49' W 073°58'0 0.0
2018-Apr-17 00:58N 40°49' W 073°58'0 0.0
2018-Apr-17 00:28N 40°49' W 073°58'0 0.0
2018-Apr-16 23:55N 40°49' W 073°58'0 0.0
2018-Apr-16 23:25N 40°49' W 073°58'0 0.3
2018-Apr-16 22:58N 40°49' W 073°58'0 0.1
2018-Apr-16 22:25N 40°49' W 073°58'0 0.0
2018-Apr-16 21:58N 40°49' W 073°58'0 0.0
2018-Apr-16 21:28N 40°49' W 073°58'0 0.0
2018-Apr-16 20:58N 40°49' W 073°58'0 0.0
2018-Apr-16 20:28N 40°49' W 073°58'0 0.0
2018-Apr-16 19:58N 40°49' W 073°58'0 0.0
2018-Apr-16 19:25N 40°49' W 073°58'0 0.0
2018-Apr-16 18:58N 40°49' W 073°58'0 0.0
2018-Apr-16 18:28N 40°49' W 073°58'0 0.0
2018-Apr-16 17:58N 40°49' W 073°58'0 0.0
2018-Apr-16 17:28N 40°49' W 073°58'0 0.1
2018-Apr-16 16:58N 40°49' W 073°58'0 0.2
2018-Apr-16 16:28N 40°49' W 073°58'0 0.2
2018-Apr-16 15:55N 40°49' W 073°58'0 0.0
2018-Apr-16 15:25N 40°49' W 073°58'0 0.0
2018-Apr-16 14:58N 40°49' W 073°58'0 0.1
2018-Apr-16 14:28N 40°49' W 073°58'0 0.0
2018-Apr-16 13:58N 40°49' W 073°58'0 0.0
2018-Apr-16 13:28N 40°49' W 073°58'0 0.1
2018-Apr-16 12:55N 40°49' W 073°58'0 0.1
2018-Apr-16 12:28N 40°49' W 073°58'0 0.1
2018-Apr-16 11:58N 40°49' W 073°58'0 0.1
2018-Apr-16 11:25N 40°49' W 073°58'0 0.0
2018-Apr-16 10:58N 40°49' W 073°58'0 0.0
2018-Apr-16 10:28N 40°49' W 073°58'0 0.0
2018-Apr-16 09:55N 40°49' W 073°58'0 0.0
2018-Apr-16 09:28N 40°49' W 073°58'0 0.0
2018-Apr-16 08:58N 40°49' W 073°58'0 0.0
2018-Apr-16 08:28N 40°49' W 073°58'0 0.0
2018-Apr-16 07:58N 40°49' W 073°58'0 0.0
2018-Apr-16 07:28N 40°49' W 073°58'0 0.0
2018-Apr-16 06:58N 40°49' W 073°58'0 0.0
2018-Apr-16 06:28N 40°49' W 073°58'0 0.0
2018-Apr-16 05:58N 40°49' W 073°58'0 0.0
2018-Apr-16 05:28N 40°49' W 073°58'0 0.0
2018-Apr-16 04:55N 40°49' W 073°58'0 0.1
2018-Apr-16 04:28N 40°49' W 073°58'0 0.2
2018-Apr-16 03:58N 40°49' W 073°58'0 0.1
2018-Apr-16 03:28N 40°49' W 073°58'0 0.1
2018-Apr-16 02:58N 40°49' W 073°58'0 0.0
2018-Apr-16 02:28N 40°49' W 073°58'0 0.0
2018-Apr-16 01:55N 40°49' W 073°58'0 0.0
2018-Apr-16 01:28N 40°49' W 073°58'0 0.0
2018-Apr-16 00:58N 40°49' W 073°58'0 0.0
2018-Apr-16 00:28N 40°49' W 073°58'0 0.0
2018-Apr-15 23:58N 40°49' W 073°58'0 0.2
2018-Apr-15 23:28N 40°49' W 073°58'0 0.2
2018-Apr-15 22:55N 40°49' W 073°58'3 7.4
2018-Apr-15 22:30N 40°46' W 074°00'4 9.0
2018-Apr-15 22:00N 40°42' W 074°02'4 7.8
2018-Apr-15 21:30N 40°39' W 074°05'4 7.9
2018-Apr-15 21:01N 40°39' W 074°10'2 3.3
2018-Apr-15 20:28N 40°38' W 074°12'0 0.0
2018-Apr-15 19:58N 40°38' W 074°12'0 0.0
2018-Apr-15 19:25N 40°38' W 074°12'0 0.0
2018-Apr-15 18:55N 40°38' W 074°12'0 0.0
2018-Apr-15 18:19N 40°38' W 074°12'0 0.0
2018-Apr-15 17:55N 40°38' W 074°12'0 0.0
2018-Apr-15 17:28N 40°38' W 074°12'0 0.0
2018-Apr-15 16:58N 40°38' W 074°12'0 0.0
2018-Apr-15 16:28N 40°38' W 074°12'0 0.0
2018-Apr-15 15:55N 40°38' W 074°12'0 0.0
2018-Apr-15 15:28N 40°38' W 074°12'0 0.0
2018-Apr-15 14:58N 40°38' W 074°12'0 0.0
2018-Apr-15 14:28N 40°38' W 074°12'0 0.0
2018-Apr-15 13:58N 40°38' W 074°12'0 0.0
2018-Apr-15 13:28N 40°38' W 074°12'0 0.0
2018-Apr-15 12:55N 40°38' W 074°12'0 0.0
2018-Apr-15 12:28N 40°38' W 074°12'0 0.0
2018-Apr-15 11:58N 40°38' W 074°12'0 0.0
2018-Apr-15 11:28N 40°38' W 074°12'0 0.0
2018-Apr-15 10:58N 40°38' W 074°12'0 0.0
2018-Apr-15 10:28N 40°38' W 074°12'0 0.0
2018-Apr-15 09:58N 40°38' W 074°12'0 0.0
2018-Apr-15 09:25N 40°38' W 074°12'0 0.0
2018-Apr-15 08:55N 40°38' W 074°12'0 0.0
2018-Apr-15 08:25N 40°38' W 074°12'0 0.0
2018-Apr-15 07:58N 40°38' W 074°12'0 0.0
2018-Apr-15 07:07N 40°38' W 074°12'0 0.0
2018-Apr-15 06:58N 40°38' W 074°12'0 0.0
2018-Apr-15 06:28N 40°38' W 074°12'0 0.0
2018-Apr-15 05:58N 40°38' W 074°12'0 0.0
2018-Apr-15 05:13N 40°38' W 074°12'0 0.0
2018-Apr-15 04:58N 40°38' W 074°12'0 0.0
2018-Apr-15 04:28N 40°38' W 074°12'0 0.0
2018-Apr-15 03:55N 40°38' W 074°12'0 0.0
2018-Apr-15 03:28N 40°38' W 074°12'0 0.0
2018-Apr-15 02:58N 40°38' W 074°12'0 0.0
2018-Apr-15 02:28N 40°38' W 074°12'0 0.0
2018-Apr-15 01:52N 40°38' W 074°12'0 0.0
2018-Apr-15 01:28N 40°38' W 074°12'0 0.0
2018-Apr-15 00:55N 40°38' W 074°12'0 0.0
2018-Apr-15 00:28N 40°38' W 074°12'0 0.0
2018-Apr-14 23:58N 40°38' W 074°12'0 0.0
2018-Apr-14 23:22N 40°38' W 074°12'0 0.0
2018-Apr-14 22:58N 40°38' W 074°12'0 0.0
2018-Apr-14 22:28N 40°38' W 074°12'0 0.0
2018-Apr-14 21:52N 40°38' W 074°12'1 3.5
2018-Apr-14 21:30N 40°39' W 074°11'3 6.6
2018-Apr-14 21:00N 40°39' W 074°07'3 6.3
2018-Apr-14 20:29N 40°40' W 074°03'0 0.1
2018-Apr-14 19:59N 40°40' W 074°03'0 0.0
2018-Apr-14 19:29N 40°40' W 074°03'0 0.8
2018-Apr-14 19:00N 40°40' W 074°03'4 6.2
2018-Apr-14 18:23N 40°38' W 074°08'0 0.0
2018-Apr-14 17:53N 40°38' W 074°08'0 0.0
2018-Apr-14 17:29N 40°38' W 074°08'0 0.0
2018-Apr-14 16:53N 40°38' W 074°08'2 4.2
2018-Apr-14 16:30N 40°39' W 074°06'3 5.2
2018-Apr-14 16:00N 40°40' W 074°03'0 0.0
2018-Apr-14 15:30N 40°40' W 074°03'0 0.0
2018-Apr-14 15:00N 40°40' W 074°03'0 0.0
2018-Apr-14 14:30N 40°40' W 074°02'0 0.3
2018-Apr-14 14:00N 40°40' W 074°02'0 0.1
2018-Apr-14 13:30N 40°40' W 074°02'0 0.0
2018-Apr-14 13:00N 40°40' W 074°02'0 0.0
2018-Apr-14 12:30N 40°40' W 074°02'0 0.0
2018-Apr-14 12:00N 40°40' W 074°02'0 0.0
2018-Apr-14 11:30N 40°40' W 074°02'0 0.1
2018-Apr-14 11:00N 40°40' W 074°02'0 0.0
2018-Apr-14 10:30N 40°40' W 074°02'0 0.2
2018-Apr-14 10:00N 40°40' W 074°03'0 0.1
2018-Apr-14 09:30N 40°40' W 074°03'0 0.1
2018-Apr-14 09:00N 40°40' W 074°02'0 0.0
2018-Apr-14 08:30N 40°40' W 074°03'0 0.0
2018-Apr-14 08:00N 40°40' W 074°02'0 0.0
2018-Apr-14 07:30N 40°40' W 074°03'0 0.0
2018-Apr-14 07:00N 40°40' W 074°02'0 0.1
2018-Apr-14 06:30N 40°40' W 074°03'0 0.1
2018-Apr-14 06:00N 40°40' W 074°02'0 0.0
2018-Apr-14 05:30N 40°40' W 074°02'0 0.0
2018-Apr-14 05:00N 40°40' W 074°03'0 0.0
2018-Apr-14 04:30N 40°40' W 074°03'0 0.0
2018-Apr-14 04:00N 40°40' W 074°03'0 0.0
2018-Apr-14 03:30N 40°40' W 074°03'0 0.0
2018-Apr-14 03:00N 40°40' W 074°03'0 0.1
2018-Apr-14 02:30N 40°40' W 074°03'0 0.2
2018-Apr-14 02:00N 40°40' W 074°02'0 0.1
2018-Apr-14 01:30N 40°40' W 074°02'0 0.0
2018-Apr-14 01:00N 40°40' W 074°02'0 0.0
2018-Apr-14 00:30N 40°40' W 074°02'0 0.0
2018-Apr-14 00:00N 40°40' W 074°02'0 0.0
2018-Apr-13 23:30N 40°40' W 074°02'0 0.0
2018-Apr-13 23:00N 40°40' W 074°02'0 0.0
2018-Apr-13 22:27N 40°40' W 074°02'0 0.0
2018-Apr-13 22:00N 40°40' W 074°02'0 0.0
2018-Apr-13 21:30N 40°40' W 074°02'0 0.2
2018-Apr-13 21:00N 40°40' W 074°03'0 0.1
2018-Apr-13 20:30N 40°40' W 074°03'0 0.1
2018-Apr-13 20:00N 40°40' W 074°02'0 0.0
2018-Apr-13 19:30N 40°40' W 074°03'0 0.0
2018-Apr-13 19:00N 40°40' W 074°03'0 0.0
2018-Apr-13 18:30N 40°40' W 074°03'0 0.0
2018-Apr-13 18:00N 40°40' W 074°02'0 0.0
2018-Apr-13 17:30N 40°40' W 074°03'0 0.0
2018-Apr-13 17:00N 40°40' W 074°03'0 0.0
2018-Apr-13 16:30N 40°40' W 074°03'0 0.1
2018-Apr-13 16:00N 40°40' W 074°03'0 0.1
2018-Apr-13 15:30N 40°40' W 074°03'0 0.0
2018-Apr-13 15:00N 40°40' W 074°03'0 0.0
2018-Apr-13 14:30N 40°40' W 074°03'0 0.1
2018-Apr-13 14:00N 40°40' W 074°03'0 0.3
2018-Apr-13 13:30N 40°40' W 074°02'0 0.0
2018-Apr-13 13:00N 40°40' W 074°02'0 0.0
2018-Apr-13 12:30N 40°40' W 074°02'0 0.0
2018-Apr-13 12:00N 40°40' W 074°02'0 0.0
2018-Apr-13 11:30N 40°40' W 074°02'0 0.0
2018-Apr-13 11:00N 40°40' W 074°02'0 0.0
2018-Apr-13 10:30N 40°40' W 074°02'0 0.0
2018-Apr-13 10:00N 40°40' W 074°02'0 0.0
2018-Apr-13 09:30N 40°40' W 074°02'  
Track history (hours):
 
Tides and Currents Weather Stations Pressure Air Temp Water Temp Dewpoint Dewpoint Depression Visibility Wind Speed Wind Dir Waves Ship Positions

Laurie Ann Reinauer

Owner: HA REINAUER INC., Richmond, NY. More information available from US FCC via Universal Licensing System and Coast Guard Vessel Documentation Center.

Last reported at 2018-Apr-23 09:11 UTC. Time now 2018-Apr-24 12:39 UTC.
Position N 25°27' W 080°01'.

Length 129 m; draft 4.9 m.

Type: . MMSI: 367428330.

Date/timePositionNaut miles runAvg speedWind from/ knotsBaromVisibWave heightAir tempDewpointWater temp
2018-Apr-23 09:11N 25°27' W 080°01'1 5.8
2018-Apr-23 08:59N 25°28' W 080°01'3 6.0
2018-Apr-23 08:30N 25°31' W 080°02'3 6.2
2018-Apr-23 08:01N 25°34' W 080°02'3 6.6
2018-Apr-23 07:30N 25°37' W 080°02'3 7.0
2018-Apr-23 07:00N 25°41' W 080°03'4 7.2
2018-Apr-23 06:30N 25°44' W 080°03'4 7.2
2018-Apr-23 06:00N 25°48' W 080°02'4 7.4
2018-Apr-23 05:31N 25°51' W 080°02'4 7.3
2018-Apr-23 05:00N 25°55' W 080°02'4 7.8
2018-Apr-23 04:30N 25°59' W 080°03'4 7.8
2018-Apr-23 04:00N 26°03' W 080°02'3 6.7
2018-Apr-23 03:30N 26°06' W 080°02'4 7.0
2018-Apr-23 02:59N 26°10' W 080°03'3 7.1
2018-Apr-23 02:30N 26°13' W 080°03'3 6.5
2018-Apr-23 02:00N 26°16' W 080°02'4 7.2
2018-Apr-23 01:30N 26°20' W 080°02'3 6.9
2018-Apr-23 01:00N 26°23' W 080°02'3 6.9
2018-Apr-23 00:30N 26°27' W 080°01'4 7.0
2018-Apr-23 00:00N 26°30' W 080°01'20 7.2
2018-Apr-22 21:16N 26°50' W 079°60'3 7.8
2018-Apr-22 20:55N 26°53' W 080°00'4 8.4
2018-Apr-22 20:29N 26°56' W 080°01'4 8.4
2018-Apr-22 20:00N 27°00' W 080°01'  
2018-Apr-18 22:42N 36°51' W 075°51'2 8.0
2018-Apr-18 22:30N 36°52' W 075°52'4 8.3
2018-Apr-18 22:00N 36°55' W 075°56'4 8.9
2018-Apr-18 21:30N 36°57' W 076°01'3 6.4
2018-Apr-18 21:00N 36°56' W 076°05'0 0.2
2018-Apr-18 20:30N 36°56' W 076°05'1 1.2
2018-Apr-18 20:00N 36°56' W 076°04'1 2.4
2018-Apr-18 19:30N 36°57' W 076°03'3 5.6
2018-Apr-18 19:00N 36°57' W 075°59'4 6.2
2018-Apr-18 18:24N 36°57' W 075°55'3 6.9
2018-Apr-18 18:00N 36°57' W 075°51'171 6.5
2018-Apr-17 15:41N 39°28' W 074°09'2 6.4
2018-Apr-17 15:25N 39°29' W 074°08'3 6.2
2018-Apr-17 14:58N 39°31' W 074°06'3 6.1
2018-Apr-17 14:25N 39°34' W 074°04'4 6.3
2018-Apr-17 13:51N 39°38' W 074°02'2 6.2
2018-Apr-17 13:29N 39°40' W 074°01'3 6.3
2018-Apr-17 12:59N 39°43' W 073°60'3 6.1
2018-Apr-17 12:29N 39°46' W 073°59'3 6.4
2018-Apr-17 11:59N 39°49' W 073°58'4 6.4
2018-Apr-17 11:26N 39°52' W 073°58'27 6.6
2018-Apr-17 07:17N 40°19' W 073°54'2 6.7
2018-Apr-17 06:59N 40°21' W 073°54'3 6.8
2018-Apr-17 06:30N 40°25' W 073°54'4 7.6
2018-Apr-17 05:57N 40°29' W 073°55'4 9.9
2018-Apr-17 05:30N 40°31' W 073°60'610.9
2018-Apr-17 05:00N 40°36' W 074°03'510.4
2018-Apr-17 04:30N 40°41' W 074°02'510.1
2018-Apr-17 04:00N 40°46' W 074°00'3 5.9
2018-Apr-17 03:25N 40°49' W 073°58'0 0.1
2018-Apr-17 02:58N 40°49' W 073°58'0 0.0
2018-Apr-17 02:25N 40°49' W 073°58'0 0.0
2018-Apr-17 01:58N 40°49' W 073°58'0 0.0
2018-Apr-17 01:28N 40°49' W 073°58'0 0.0
2018-Apr-17 00:58N 40°49' W 073°58'0 0.0
2018-Apr-17 00:28N 40°49' W 073°58'0 0.0
2018-Apr-16 23:55N 40°49' W 073°58'0 0.0
2018-Apr-16 23:25N 40°49' W 073°58'0 0.3
2018-Apr-16 22:58N 40°49' W 073°58'0 0.1
2018-Apr-16 22:25N 40°49' W 073°58'0 0.0
2018-Apr-16 21:58N 40°49' W 073°58'0 0.0
2018-Apr-16 21:28N 40°49' W 073°58'0 0.0
2018-Apr-16 20:58N 40°49' W 073°58'0 0.0
2018-Apr-16 20:28N 40°49' W 073°58'0 0.0
2018-Apr-16 19:58N 40°49' W 073°58'0 0.0
2018-Apr-16 19:25N 40°49' W 073°58'0 0.0
2018-Apr-16 18:58N 40°49' W 073°58'0 0.0
2018-Apr-16 18:28N 40°49' W 073°58'0 0.0
2018-Apr-16 17:58N 40°49' W 073°58'0 0.0
2018-Apr-16 17:28N 40°49' W 073°58'0 0.1
2018-Apr-16 16:58N 40°49' W 073°58'0 0.2
2018-Apr-16 16:28N 40°49' W 073°58'0 0.2
2018-Apr-16 15:55N 40°49' W 073°58'0 0.0
2018-Apr-16 15:25N 40°49' W 073°58'0 0.0
2018-Apr-16 14:58N 40°49' W 073°58'0 0.1
2018-Apr-16 14:28N 40°49' W 073°58'0 0.0
2018-Apr-16 13:58N 40°49' W 073°58'0 0.0
2018-Apr-16 13:28N 40°49' W 073°58'0 0.1
2018-Apr-16 12:55N 40°49' W 073°58'0 0.1
2018-Apr-16 12:28N 40°49' W 073°58'0 0.1
2018-Apr-16 11:58N 40°49' W 073°58'0 0.1
2018-Apr-16 11:25N 40°49' W 073°58'0 0.0
2018-Apr-16 10:58N 40°49' W 073°58'0 0.0
2018-Apr-16 10:28N 40°49' W 073°58'0 0.0
2018-Apr-16 09:55N 40°49' W 073°58'0 0.0
2018-Apr-16 09:28N 40°49' W 073°58'0 0.0
2018-Apr-16 08:58N 40°49' W 073°58'0 0.0
2018-Apr-16 08:28N 40°49' W 073°58'0 0.0
2018-Apr-16 07:58N 40°49' W 073°58'0 0.0
2018-Apr-16 07:28N 40°49' W 073°58'0 0.0
2018-Apr-16 06:58N 40°49' W 073°58'0 0.0
2018-Apr-16 06:28N 40°49' W 073°58'0 0.0
2018-Apr-16 05:58N 40°49' W 073°58'0 0.0
2018-Apr-16 05:28N 40°49' W 073°58'0 0.0
2018-Apr-16 04:55N 40°49' W 073°58'0 0.1
2018-Apr-16 04:28N 40°49' W 073°58'0 0.2
2018-Apr-16 03:58N 40°49' W 073°58'0 0.1
2018-Apr-16 03:28N 40°49' W 073°58'0 0.1
2018-Apr-16 02:58N 40°49' W 073°58'0 0.0
2018-Apr-16 02:28N 40°49' W 073°58'0 0.0
2018-Apr-16 01:55N 40°49' W 073°58'0 0.0
2018-Apr-16 01:28N 40°49' W 073°58'0 0.0
2018-Apr-16 00:58N 40°49' W 073°58'0 0.0
2018-Apr-16 00:28N 40°49' W 073°58'0 0.0
2018-Apr-15 23:58N 40°49' W 073°58'0 0.2
2018-Apr-15 23:28N 40°49' W 073°58'0 0.2
2018-Apr-15 22:55N 40°49' W 073°58'3 7.4
2018-Apr-15 22:30N 40°46' W 074°00'4 9.0
2018-Apr-15 22:00N 40°42' W 074°02'4 7.8
2018-Apr-15 21:30N 40°39' W 074°05'4 7.9
2018-Apr-15 21:01N 40°39' W 074°10'2 3.3
2018-Apr-15 20:28N 40°38' W 074°12'0 0.0
2018-Apr-15 19:58N 40°38' W 074°12'0 0.0
2018-Apr-15 19:25N 40°38' W 074°12'0 0.0
2018-Apr-15 18:55N 40°38' W 074°12'0 0.0
2018-Apr-15 18:19N 40°38' W 074°12'0 0.0
2018-Apr-15 17:55N 40°38' W 074°12'0 0.0
2018-Apr-15 17:28N 40°38' W 074°12'0 0.0
2018-Apr-15 16:58N 40°38' W 074°12'0 0.0
2018-Apr-15 16:28N 40°38' W 074°12'0 0.0
2018-Apr-15 15:55N 40°38' W 074°12'0 0.0
2018-Apr-15 15:28N 40°38' W 074°12'0 0.0
2018-Apr-15 14:58N 40°38' W 074°12'0 0.0
2018-Apr-15 14:28N 40°38' W 074°12'0 0.0
2018-Apr-15 13:58N 40°38' W 074°12'0 0.0
2018-Apr-15 13:28N 40°38' W 074°12'0 0.0
2018-Apr-15 12:55N 40°38' W 074°12'0 0.0
2018-Apr-15 12:28N 40°38' W 074°12'0 0.0
2018-Apr-15 11:58N 40°38' W 074°12'0 0.0
2018-Apr-15 11:28N 40°38' W 074°12'0 0.0
2018-Apr-15 10:58N 40°38' W 074°12'0 0.0
2018-Apr-15 10:28N 40°38' W 074°12'0 0.0
2018-Apr-15 09:58N 40°38' W 074°12'0 0.0
2018-Apr-15 09:25N 40°38' W 074°12'0 0.0
2018-Apr-15 08:55N 40°38' W 074°12'0 0.0
2018-Apr-15 08:25N 40°38' W 074°12'0 0.0
2018-Apr-15 07:58N 40°38' W 074°12'0 0.0
2018-Apr-15 07:07N 40°38' W 074°12'0 0.0
2018-Apr-15 06:58N 40°38' W 074°12'0 0.0
2018-Apr-15 06:28N 40°38' W 074°12'0 0.0
2018-Apr-15 05:58N 40°38' W 074°12'0 0.0
2018-Apr-15 05:13N 40°38' W 074°12'0 0.0
2018-Apr-15 04:58N 40°38' W 074°12'0 0.0
2018-Apr-15 04:28N 40°38' W 074°12'0 0.0
2018-Apr-15 03:55N 40°38' W 074°12'0 0.0
2018-Apr-15 03:28N 40°38' W 074°12'0 0.0
2018-Apr-15 02:58N 40°38' W 074°12'0 0.0
2018-Apr-15 02:28N 40°38' W 074°12'0 0.0
2018-Apr-15 01:52N 40°38' W 074°12'0 0.0
2018-Apr-15 01:28N 40°38' W 074°12'0 0.0
2018-Apr-15 00:55N 40°38' W 074°12'0 0.0
2018-Apr-15 00:28N 40°38' W 074°12'0 0.0
2018-Apr-14 23:58N 40°38' W 074°12'0 0.0
2018-Apr-14 23:22N 40°38' W 074°12'0 0.0
2018-Apr-14 22:58N 40°38' W 074°12'0 0.0
2018-Apr-14 22:28N 40°38' W 074°12'0 0.0
2018-Apr-14 21:52N 40°38' W 074°12'1 3.5
2018-Apr-14 21:30N 40°39' W 074°11'3 6.6
2018-Apr-14 21:00N 40°39' W 074°07'3 6.3
2018-Apr-14 20:29N 40°40' W 074°03'0 0.1
2018-Apr-14 19:59N 40°40' W 074°03'0 0.0
2018-Apr-14 19:29N 40°40' W 074°03'0 0.8
2018-Apr-14 19:00N 40°40' W 074°03'4 6.2
2018-Apr-14 18:23N 40°38' W 074°08'0 0.0
2018-Apr-14 17:53N 40°38' W 074°08'0 0.0
2018-Apr-14 17:29N 40°38' W 074°08'0 0.0
2018-Apr-14 16:53N 40°38' W 074°08'2 4.2
2018-Apr-14 16:30N 40°39' W 074°06'3 5.2
2018-Apr-14 16:00N 40°40' W 074°03'0 0.0
2018-Apr-14 15:30N 40°40' W 074°03'0 0.0
2018-Apr-14 15:00N 40°40' W 074°03'0 0.0
2018-Apr-14 14:30N 40°40' W 074°02'0 0.3
2018-Apr-14 14:00N 40°40' W 074°02'0 0.1
2018-Apr-14 13:30N 40°40' W 074°02'0 0.0
2018-Apr-14 13:00N 40°40' W 074°02'0 0.0
2018-Apr-14 12:30N 40°40' W 074°02'0 0.0
2018-Apr-14 12:00N 40°40' W 074°02'0 0.0
2018-Apr-14 11:30N 40°40' W 074°02'0 0.1
2018-Apr-14 11:00N 40°40' W 074°02'0 0.0
2018-Apr-14 10:30N 40°40' W 074°02'0 0.2
2018-Apr-14 10:00N 40°40' W 074°03'0 0.1
2018-Apr-14 09:30N 40°40' W 074°03'0 0.1
2018-Apr-14 09:00N 40°40' W 074°02'0 0.0
2018-Apr-14 08:30N 40°40' W 074°03'0 0.0
2018-Apr-14 08:00N 40°40' W 074°02'0 0.0
2018-Apr-14 07:30N 40°40' W 074°03'0 0.0
2018-Apr-14 07:00N 40°40' W 074°02'0 0.1
2018-Apr-14 06:30N 40°40' W 074°03'0 0.1
2018-Apr-14 06:00N 40°40' W 074°02'0 0.0
2018-Apr-14 05:30N 40°40' W 074°02'0 0.0
2018-Apr-14 05:00N 40°40' W 074°03'0 0.0
2018-Apr-14 04:30N 40°40' W 074°03'0 0.0
2018-Apr-14 04:00N 40°40' W 074°03'0 0.0
2018-Apr-14 03:30N 40°40' W 074°03'0 0.0
2018-Apr-14 03:00N 40°40' W 074°03'0 0.1
2018-Apr-14 02:30N 40°40' W 074°03'0 0.2
2018-Apr-14 02:00N 40°40' W 074°02'0 0.1
2018-Apr-14 01:30N 40°40' W 074°02'0 0.0
2018-Apr-14 01:00N 40°40' W 074°02'0 0.0
2018-Apr-14 00:30N 40°40' W 074°02'0 0.0
2018-Apr-14 00:00N 40°40' W 074°02'0 0.0
2018-Apr-13 23:30N 40°40' W 074°02'0 0.0
2018-Apr-13 23:00N 40°40' W 074°02'0 0.0
2018-Apr-13 22:27N 40°40' W 074°02'0 0.0
2018-Apr-13 22:00N 40°40' W 074°02'0 0.0
2018-Apr-13 21:30N 40°40' W 074°02'0 0.2
2018-Apr-13 21:00N 40°40' W 074°03'0 0.1
2018-Apr-13 20:30N 40°40' W 074°03'0 0.1
2018-Apr-13 20:00N 40°40' W 074°02'0 0.0
2018-Apr-13 19:30N 40°40' W 074°03'0 0.0
2018-Apr-13 19:00N 40°40' W 074°03'0 0.0
2018-Apr-13 18:30N 40°40' W 074°03'0 0.0
2018-Apr-13 18:00N 40°40' W 074°02'0 0.0
2018-Apr-13 17:30N 40°40' W 074°03'0 0.0
2018-Apr-13 17:00N 40°40' W 074°03'0 0.0
2018-Apr-13 16:30N 40°40' W 074°03'0 0.1
2018-Apr-13 16:00N 40°40' W 074°03'0 0.1
2018-Apr-13 15:30N 40°40' W 074°03'0 0.0
2018-Apr-13 15:00N 40°40' W 074°03'0 0.0
2018-Apr-13 14:30N 40°40' W 074°03'0 0.1
2018-Apr-13 14:00N 40°40' W 074°03'0 0.3
2018-Apr-13 13:30N 40°40' W 074°02'0 0.0
2018-Apr-13 13:00N 40°40' W 074°02'0 0.0
2018-Apr-13 12:30N 40°40' W 074°02'0 0.0
2018-Apr-13 12:00N 40°40' W 074°02'0 0.0
2018-Apr-13 11:30N 40°40' W 074°02'0 0.0
2018-Apr-13 11:00N 40°40' W 074°02'0 0.0
2018-Apr-13 10:30N 40°40' W 074°02'0 0.0
2018-Apr-13 10:00N 40°40' W 074°02'0 0.0
2018-Apr-13 09:30N 40°40' W 074°02'  

Dump ship's entire track history